createdAt,value
2019-03-06T00:00:45.993Z,6.10
2019-03-06T00:03:20.453Z,6.10
2019-03-06T00:05:53.187Z,6.10
2019-03-06T00:08:24.243Z,6.00
2019-03-06T00:16:32.513Z,6.10
2019-03-06T00:19:06.498Z,6.10
2019-03-06T00:21:38.138Z,6.10
2019-03-06T00:24:09.198Z,6.00
2019-03-06T00:26:40.861Z,6.10
2019-03-06T00:29:24.786Z,6.00
2019-03-06T00:31:53.654Z,6.00
2019-03-06T00:34:39.025Z,6.00
2019-03-06T00:37:41.886Z,6.00
2019-03-06T00:40:43.400Z,6.00
2019-03-06T00:43:16.457Z,6.00
2019-03-06T00:45:51.161Z,5.90
2019-03-06T00:48:25.064Z,5.90
2019-03-06T00:51:13.628Z,5.90
2019-03-06T00:53:47.753Z,5.90
2019-03-06T00:56:20.518Z,5.90
2019-03-06T00:58:53.703Z,5.90
2019-03-06T01:01:27.201Z,5.90
2019-03-06T01:04:07.484Z,5.90
2019-03-06T01:06:40.424Z,5.90
2019-03-06T01:12:12.270Z,5.90
2019-03-06T01:14:53.166Z,5.90
2019-03-06T01:17:26.674Z,5.90
2019-03-06T01:19:58.049Z,5.90
2019-03-06T01:22:58.198Z,5.80
2019-03-06T01:25:17.131Z,5.80
2019-03-06T01:28:10.563Z,5.70
2019-03-06T01:30:46.154Z,5.60
2019-03-06T01:33:45.154Z,5.60
2019-03-06T01:36:30.694Z,5.50
2019-03-06T01:39:24.377Z,5.50
2019-03-06T01:42:05.968Z,5.50
2019-03-06T01:44:45.002Z,5.50
2019-03-06T01:47:17.911Z,5.50
2019-03-06T01:49:52.852Z,5.50
2019-03-06T01:52:27.654Z,5.50
2019-03-06T01:55:21.308Z,5.50
2019-03-06T01:57:52.860Z,5.50
2019-03-06T02:00:52.811Z,5.50
2019-03-06T02:03:30.276Z,5.50
2019-03-06T02:06:04.572Z,5.50
2019-03-06T02:08:40.474Z,5.40
2019-03-06T02:11:34.898Z,5.40
2019-03-06T02:14:24.739Z,5.40
2019-03-06T02:17:04.874Z,5.40
2019-03-06T02:19:36.103Z,5.30
2019-03-06T02:22:13.800Z,5.30
2019-03-06T02:25:07.771Z,5.30
2019-03-06T02:27:40.149Z,5.30
2019-03-06T02:30:23.309Z,5.20
2019-03-06T02:33:25.537Z,5.30
2019-03-06T02:36:20.494Z,5.30
2019-03-06T02:38:50.417Z,5.30
2019-03-06T02:41:38.004Z,5.30
2019-03-06T02:44:03.830Z,5.30
2019-03-06T02:46:35.426Z,5.30
2019-03-06T02:49:11.293Z,5.30
2019-03-06T02:51:42.840Z,5.20
2019-03-06T02:54:32.875Z,5.20
2019-03-06T02:57:05.051Z,5.20
2019-03-06T03:00:03.980Z,5.10
2019-03-06T03:02:42.636Z,5.10
2019-03-06T03:05:49.843Z,5.10
2019-03-06T03:08:31.382Z,5.10
2019-03-06T03:11:24.608Z,5.10
2019-03-06T03:13:58.470Z,5.10
2019-03-06T03:16:36.659Z,5.00
2019-03-06T03:22:08.338Z,5.00
2019-03-06T03:24:50.784Z,5.00
2019-03-06T03:27:21.071Z,5.00
2019-03-06T03:29:58.855Z,4.90
2019-03-06T03:32:31.871Z,5.00
2019-03-06T03:35:31.026Z,5.00
2019-03-06T03:38:07.190Z,5.00
2019-03-06T03:40:39.250Z,5.00
2019-03-06T03:43:16.456Z,5.00
2019-03-06T03:45:48.867Z,4.90
2019-03-06T03:48:33.477Z,4.90
2019-03-06T03:51:56.898Z,4.80
2019-03-06T03:53:49.163Z,4.80
2019-03-06T03:56:34.856Z,4.80
2019-03-06T03:59:14.617Z,4.70
2019-03-06T04:01:44.353Z,4.70
2019-03-06T04:04:19.956Z,4.80
2019-03-06T04:07:11.024Z,4.70
2019-03-06T04:09:48.461Z,4.70
2019-03-06T04:13:44.833Z,4.80
2019-03-06T04:16:22.026Z,4.80
2019-03-06T04:18:57.907Z,4.80
2019-03-06T04:21:39.631Z,4.80
2019-03-06T04:24:12.563Z,4.80
2019-03-06T04:26:49.613Z,4.80
2019-03-06T04:29:23.929Z,4.70
2019-03-06T04:32:10.845Z,4.70
2019-03-06T04:34:47.703Z,4.60
2019-03-06T04:37:23.789Z,4.60
2019-03-06T04:40:02.535Z,4.60
2019-03-06T04:42:48.008Z,4.60
2019-03-06T04:45:19.501Z,4.60
2019-03-06T04:47:50.881Z,4.50
2019-03-06T04:50:30.800Z,4.50
2019-03-06T04:53:04.738Z,4.50
2019-03-06T04:55:39.678Z,4.50
2019-03-06T04:58:11.340Z,4.40
2019-03-06T05:04:57.516Z,4.40
2019-03-06T05:07:57.335Z,4.40
2019-03-06T05:10:42.226Z,4.40
2019-03-06T05:13:18.667Z,4.40
2019-03-06T05:16:10.730Z,4.40
2019-03-06T05:19:02.215Z,4.40
2019-03-06T05:21:44.252Z,4.40
2019-03-06T05:24:23.435Z,4.30
2019-03-06T05:27:43.707Z,4.30
2019-03-06T05:30:25.802Z,4.30
2019-03-06T05:33:16.115Z,4.30
2019-03-06T05:36:34.062Z,4.30
2019-03-06T05:39:21.268Z,4.30
2019-03-06T05:42:37.617Z,4.30
2019-03-06T05:45:15.896Z,4.40
2019-03-06T05:47:59.607Z,4.30
2019-03-06T05:53:38.080Z,4.40
2019-03-06T05:56:21.086Z,4.40
2019-03-06T05:59:15.813Z,4.40
2019-03-06T06:02:01.612Z,4.30
2019-03-06T06:05:24.999Z,4.30
2019-03-06T06:07:37.975Z,4.30
2019-03-06T06:10:17.544Z,4.30
2019-03-06T06:12:47.676Z,4.20
2019-03-06T06:15:18.031Z,4.20
2019-03-06T06:17:48.103Z,4.20
2019-03-06T06:20:18.014Z,4.20
2019-03-06T06:23:19.849Z,4.20
2019-03-06T06:25:50.062Z,4.20
2019-03-06T06:28:21.626Z,4.20
2019-03-06T06:30:51.546Z,4.30
2019-03-06T06:33:21.722Z,4.30
2019-03-06T06:35:51.859Z,4.30
2019-03-06T06:38:22.115Z,4.40
2019-03-06T06:40:52.153Z,4.40
2019-03-06T06:43:22.483Z,4.40
2019-03-06T06:45:52.620Z,4.40
2019-03-06T06:48:24.389Z,4.40
2019-03-06T06:51:33.278Z,4.50
2019-03-06T06:54:15.086Z,4.50
2019-03-06T06:57:48.003Z,4.50
2019-03-06T07:01:19.573Z,4.60
2019-03-06T07:05:27.501Z,4.50
2019-03-06T07:08:23.001Z,4.60
2019-03-06T07:11:15.423Z,4.60
2019-03-06T07:14:23.228Z,4.70
2019-03-06T07:17:11.779Z,4.70
2019-03-06T07:20:07.251Z,4.80
2019-03-06T07:22:52.008Z,4.90
2019-03-06T07:25:41.655Z,5.00
2019-03-06T07:28:30.665Z,5.10
2019-03-06T07:31:46.843Z,5.20
2019-03-06T07:34:54.483Z,5.30
2019-03-06T07:37:44.471Z,5.40
2019-03-06T07:40:31.063Z,5.50
2019-03-06T07:43:11.662Z,5.50
2019-03-06T07:46:06.700Z,5.60
2019-03-06T07:49:11.152Z,5.70
2019-03-06T07:55:08.578Z,5.90
2019-03-06T07:58:33.163Z,6.00
2019-03-06T08:01:16.853Z,6.10
2019-03-06T08:04:07.683Z,6.20
2019-03-06T08:06:38.193Z,6.30
2019-03-06T08:09:13.027Z,6.40
2019-03-06T08:12:00.922Z,6.50
2019-03-06T08:14:51.878Z,6.60
2019-03-06T08:17:47.994Z,6.80
2019-03-06T08:20:45.558Z,6.90
2019-03-06T08:23:22.471Z,7.00
2019-03-06T08:25:52.660Z,7.00
2019-03-06T08:28:23.390Z,7.10
2019-03-06T08:31:19.748Z,7.20
2019-03-06T08:33:49.882Z,7.40
2019-03-06T08:36:20.222Z,7.50
2019-03-06T08:38:50.174Z,7.60
2019-03-06T08:41:20.500Z,7.70
2019-03-06T08:43:51.211Z,7.80
2019-03-06T08:46:40.483Z,8.00
2019-03-06T08:49:30.120Z,8.00
2019-03-06T08:52:17.246Z,8.10
2019-03-06T08:55:03.192Z,8.30
2019-03-06T08:58:01.812Z,8.50
2019-03-06T09:01:09.400Z,8.60
2019-03-06T09:03:46.373Z,8.70
2019-03-06T09:06:22.667Z,8.70
2019-03-06T09:09:21.502Z,8.80
2019-03-06T09:12:09.046Z,8.90
2019-03-06T09:15:01.611Z,9.00
2019-03-06T09:17:50.049Z,9.10
2019-03-06T09:20:47.615Z,9.20
2019-03-06T09:23:36.710Z,9.30
2019-03-06T09:26:18.802Z,9.40
2019-03-06T09:29:01.508Z,9.50
2019-03-06T09:31:40.360Z,9.50
2019-03-06T09:34:33.060Z,9.70
2019-03-06T09:37:20.827Z,9.70
2019-03-06T09:40:19.163Z,9.80
2019-03-06T09:43:11.251Z,9.90
2019-03-06T09:45:53.256Z,10.00
2019-03-06T09:48:45.567Z,10.20
2019-03-06T09:51:33.673Z,10.30
2019-03-06T09:54:29.700Z,10.40
2019-03-06T09:57:15.852Z,10.50
2019-03-06T10:00:13.355Z,10.50
2019-03-06T10:03:12.066Z,10.60
2019-03-06T10:06:01.783Z,10.70
2019-03-06T10:08:53.951Z,10.80
2019-03-06T10:11:45.520Z,10.90
2019-03-06T10:14:20.203Z,11.00
2019-03-06T10:16:56.535Z,11.00
2019-03-06T10:19:39.836Z,11.10
2019-03-06T10:22:09.747Z,11.10
2019-03-06T10:24:40.095Z,11.10
2019-03-06T10:27:10.917Z,11.20
2019-03-06T10:29:40.968Z,11.30
2019-03-06T10:32:11.050Z,11.50
2019-03-06T10:34:40.983Z,11.50
2019-03-06T10:37:11.020Z,11.60
2019-03-06T10:39:41.562Z,11.60
2019-03-06T10:42:11.787Z,11.80
2019-03-06T10:44:42.085Z,11.90
2019-03-06T10:47:12.207Z,11.90
2019-03-06T10:49:42.271Z,12.00
2019-03-06T10:52:12.593Z,12.20
2019-03-06T10:54:45.022Z,12.40
2019-03-06T10:57:15.138Z,12.60
2019-03-06T10:59:45.279Z,12.70
2019-03-06T11:02:15.293Z,12.60
2019-03-06T11:04:55.907Z,12.80
2019-03-06T11:07:25.929Z,12.70
2019-03-06T11:09:56.122Z,12.80
2019-03-06T11:12:27.262Z,12.80
2019-03-06T11:14:57.623Z,12.80
2019-03-06T11:17:27.704Z,12.70
2019-03-06T11:19:58.020Z,12.80
2019-03-06T11:22:27.884Z,12.90
2019-03-06T11:24:57.776Z,13.00
2019-03-06T11:27:27.752Z,13.00
2019-03-06T11:29:57.756Z,13.10
2019-03-06T11:32:28.412Z,13.10
2019-03-06T11:34:58.323Z,13.20
2019-03-06T11:37:28.363Z,13.30
2019-03-06T11:39:58.280Z,13.50
2019-03-06T11:42:28.195Z,13.60
2019-03-06T11:44:58.158Z,13.80
2019-03-06T11:47:28.054Z,13.90
2019-03-06T11:49:58.390Z,14.00
2019-03-06T11:52:28.642Z,14.30
2019-03-06T11:55:05.933Z,14.50
2019-03-06T11:57:30.813Z,14.60
2019-03-06T12:00:04.311Z,14.70
2019-03-06T12:02:34.854Z,14.60
2019-03-06T12:05:05.330Z,14.40
2019-03-06T12:07:35.288Z,14.10
2019-03-06T12:10:05.493Z,14.00
2019-03-06T12:12:35.435Z,14.10
2019-03-06T12:15:06.875Z,14.20
2019-03-06T12:17:36.889Z,14.30
2019-03-06T12:20:08.932Z,14.40
2019-03-06T12:22:39.022Z,14.50
2019-03-06T12:25:10.160Z,14.50
2019-03-06T12:27:40.429Z,14.50
2019-03-06T12:30:10.701Z,14.50
2019-03-06T12:32:40.801Z,14.60
2019-03-06T12:35:10.969Z,14.70
2019-03-06T12:37:46.949Z,14.70
2019-03-06T12:40:14.842Z,14.80
2019-03-06T12:42:45.098Z,14.80
2019-03-06T12:45:15.656Z,14.80
2019-03-06T12:47:55.187Z,14.90
2019-03-06T12:50:21.811Z,15.00
2019-03-06T12:52:51.869Z,15.00
2019-03-06T12:55:23.200Z,15.00
2019-03-06T12:57:59.316Z,15.00
2019-03-06T13:00:25.642Z,15.10
2019-03-06T13:02:56.284Z,15.10
2019-03-06T13:05:29.296Z,15.20
2019-03-06T13:07:59.200Z,15.20
2019-03-06T13:10:29.055Z,15.20
2019-03-06T13:12:59.025Z,15.20
2019-03-06T13:15:28.892Z,15.20
2019-03-06T13:17:58.910Z,15.20
2019-03-06T13:20:29.086Z,15.20
2019-03-06T13:22:59.250Z,15.20
2019-03-06T13:25:30.265Z,15.30
2019-03-06T13:28:00.251Z,15.30
2019-03-06T13:30:30.715Z,15.40
2019-03-06T13:33:20.209Z,15.40
2019-03-06T13:35:50.255Z,15.40
2019-03-06T13:38:20.306Z,15.40
2019-03-06T13:40:50.188Z,15.30
2019-03-06T13:43:20.133Z,15.20
2019-03-06T13:45:50.534Z,15.30
2019-03-06T13:48:20.536Z,15.30
2019-03-06T13:50:50.768Z,15.30
2019-03-06T13:53:21.159Z,15.30
2019-03-06T13:55:51.349Z,15.30
2019-03-06T13:58:21.451Z,15.30
2019-03-06T14:00:51.730Z,15.30
2019-03-06T14:03:22.426Z,15.30
2019-03-06T14:05:52.622Z,15.40
2019-03-06T14:08:22.950Z,15.50
2019-03-06T14:10:53.040Z,15.60
2019-03-06T14:13:22.997Z,15.70
2019-03-06T14:15:54.147Z,15.90
2019-03-06T14:18:24.761Z,15.90
2019-03-06T14:20:54.870Z,16.00
2019-03-06T14:23:34.778Z,16.00
2019-03-06T14:25:58.588Z,16.00
2019-03-06T14:28:28.916Z,16.20
2019-03-06T14:30:58.884Z,16.20
2019-03-06T14:33:29.479Z,16.20
2019-03-06T14:35:59.475Z,16.30
2019-03-06T14:38:30.016Z,16.30
2019-03-06T14:41:00.264Z,16.30
2019-03-06T14:43:31.798Z,16.30
2019-03-06T14:46:01.654Z,16.30
2019-03-06T14:48:31.827Z,16.30
2019-03-06T14:51:01.931Z,16.30
2019-03-06T14:53:32.223Z,16.20
2019-03-06T14:56:02.242Z,16.30
2019-03-06T14:58:32.848Z,16.30
2019-03-06T15:01:04.121Z,16.10
2019-03-06T15:03:34.193Z,16.10
2019-03-06T15:06:04.587Z,16.00
2019-03-06T15:08:35.497Z,16.00
2019-03-06T15:11:05.442Z,16.00
2019-03-06T15:13:36.170Z,16.10
2019-03-06T15:16:07.034Z,16.00
2019-03-06T15:18:37.317Z,15.90
2019-03-06T15:21:07.410Z,15.90
2019-03-06T15:23:37.843Z,15.90
2019-03-06T15:26:09.965Z,15.90
2019-03-06T15:28:40.172Z,15.70
2019-03-06T15:31:10.981Z,15.70
2019-03-06T15:33:41.101Z,15.70
2019-03-06T15:36:11.188Z,15.60
2019-03-06T15:38:41.170Z,15.60
2019-03-06T15:41:11.173Z,15.70
2019-03-06T15:43:41.171Z,15.70
2019-03-06T15:46:11.352Z,15.60
2019-03-06T15:48:41.814Z,15.60
2019-03-06T15:51:11.746Z,15.60
2019-03-06T15:53:42.453Z,15.50
2019-03-06T15:56:14.171Z,15.50
2019-03-06T15:58:44.990Z,15.50
2019-03-06T16:01:15.149Z,15.40
2019-03-06T16:03:45.398Z,15.40
2019-03-06T16:06:20.282Z,15.20
2019-03-06T16:08:47.751Z,15.20
2019-03-06T16:11:19.705Z,15.20
2019-03-06T16:13:50.703Z,15.00
2019-03-06T16:16:20.690Z,15.00
2019-03-06T16:18:51.021Z,14.90
2019-03-06T16:21:20.904Z,14.80
2019-03-06T16:23:50.990Z,14.80
2019-03-06T16:26:21.099Z,14.70
2019-03-06T16:28:51.362Z,14.70
2019-03-06T16:31:25.834Z,14.80
2019-03-06T16:33:57.205Z,14.70
2019-03-06T16:36:27.208Z,14.70
2019-03-06T16:38:57.240Z,14.60
2019-03-06T16:41:27.282Z,14.50
2019-03-06T16:43:57.595Z,14.40
2019-03-06T16:46:27.612Z,14.40
2019-03-06T16:48:57.627Z,14.30
2019-03-06T16:51:27.458Z,14.20
2019-03-06T16:53:57.759Z,14.20
2019-03-06T16:56:28.668Z,14.10
2019-03-06T16:58:58.872Z,14.10
2019-03-06T17:01:28.906Z,14.10
2019-03-06T17:03:58.845Z,14.10
2019-03-06T17:06:28.819Z,14.00
2019-03-06T17:08:58.898Z,14.00
2019-03-06T17:11:29.266Z,13.90
2019-03-06T17:13:59.445Z,13.80
2019-03-06T17:16:29.637Z,13.70
2019-03-06T17:18:59.739Z,13.70
2019-03-06T17:24:34.155Z,13.50
2019-03-06T17:27:04.485Z,13.40
2019-03-06T17:29:34.733Z,13.30
2019-03-06T17:32:04.821Z,13.30
2019-03-06T17:34:37.184Z,13.30
2019-03-06T17:37:07.996Z,13.30
2019-03-06T17:39:43.120Z,13.20
2019-03-06T17:42:15.378Z,13.10
2019-03-06T17:44:45.568Z,13.10
2019-03-06T17:47:15.640Z,13.10
2019-03-06T17:49:47.310Z,13.00
2019-03-06T17:52:17.606Z,13.00
2019-03-06T17:54:50.140Z,13.00
2019-03-06T17:57:20.362Z,13.00
2019-03-06T17:59:51.202Z,13.00
2019-03-06T18:02:21.854Z,13.00
2019-03-06T18:04:52.357Z,13.10
2019-03-06T18:07:22.333Z,13.10
2019-03-06T18:09:52.410Z,13.00
2019-03-06T18:12:22.598Z,13.00
2019-03-06T18:15:01.189Z,13.00
2019-03-06T18:17:28.495Z,13.00
2019-03-06T18:19:58.660Z,12.90
2019-03-06T18:22:31.142Z,12.90
2019-03-06T18:25:01.147Z,12.90
2019-03-06T18:27:31.325Z,12.90
2019-03-06T18:30:01.832Z,13.00
2019-03-06T18:32:31.726Z,13.10
2019-03-06T18:35:11.549Z,13.10
2019-03-06T18:37:41.539Z,13.20
2019-03-06T18:40:14.637Z,13.20
2019-03-06T18:42:44.674Z,13.20
2019-03-06T18:45:34.821Z,13.20
2019-03-06T18:48:11.031Z,13.20
2019-03-06T18:51:30.253Z,13.00
2019-03-06T18:54:23.943Z,12.90
2019-03-06T18:56:50.421Z,12.80
2019-03-06T18:59:29.886Z,12.80
2019-03-06T19:06:49.480Z,12.70
2019-03-06T19:10:25.732Z,12.50
2019-03-06T19:14:09.661Z,12.50
2019-03-06T19:18:19.986Z,12.50
2019-03-06T19:24:26.322Z,12.50
2019-03-06T19:26:59.071Z,12.60
2019-03-06T19:29:32.803Z,12.60
2019-03-06T19:32:04.871Z,12.60
2019-03-06T19:34:37.492Z,12.70
2019-03-06T19:37:10.477Z,12.70
2019-03-06T19:39:46.638Z,12.70
2019-03-06T19:42:25.966Z,12.70
2019-03-06T19:44:58.855Z,12.70
2019-03-06T19:47:56.428Z,12.60
2019-03-06T19:50:29.795Z,12.50
2019-03-06T19:58:03.546Z,12.40
2019-03-06T20:00:46.473Z,12.40
2019-03-06T20:07:58.827Z,12.30
2019-03-06T20:10:34.960Z,12.20
2019-03-06T20:13:05.555Z,12.20
2019-03-06T20:15:39.693Z,12.30
2019-03-06T20:18:38.590Z,12.30
2019-03-06T20:21:11.531Z,12.30
2019-03-06T20:35:24.696Z,12.30
2019-03-06T20:37:56.331Z,12.40
2019-03-06T20:40:53.876Z,12.40
2019-03-06T20:44:02.986Z,12.40
2019-03-06T20:47:35.152Z,12.40
2019-03-06T20:49:27.722Z,12.40
2019-03-06T20:52:09.967Z,12.20
2019-03-06T20:54:44.763Z,12.20
2019-03-06T20:57:15.024Z,12.20
2019-03-06T20:59:45.705Z,12.10
2019-03-06T21:02:15.846Z,12.00
2019-03-06T21:05:08.051Z,12.00
2019-03-06T21:07:44.970Z,12.00
2019-03-06T21:10:09.772Z,12.00
2019-03-06T21:12:39.832Z,12.00
2019-03-06T21:15:11.469Z,12.00
2019-03-06T21:17:42.161Z,11.90
2019-03-06T21:20:18.315Z,11.90
2019-03-06T21:23:13.168Z,11.80
2019-03-06T21:25:53.284Z,11.80
2019-03-06T21:28:57.244Z,11.70
2019-03-06T21:31:27.719Z,11.80
2019-03-06T21:33:58.626Z,11.70
2019-03-06T21:36:36.541Z,11.60
2019-03-06T21:39:22.033Z,11.60
2019-03-06T21:42:38.038Z,11.60
2019-03-06T21:45:15.900Z,11.60
2019-03-06T21:48:09.433Z,11.60
2019-03-06T21:50:41.477Z,11.50
2019-03-06T21:53:13.771Z,11.50
2019-03-06T21:55:48.185Z,11.50
2019-03-06T21:58:31.192Z,11.50
2019-03-06T22:01:07.156Z,11.50
2019-03-06T22:03:47.005Z,11.50
2019-03-06T22:06:31.012Z,11.40
2019-03-06T22:09:02.040Z,11.30
2019-03-06T22:11:32.333Z,11.40
2019-03-06T22:14:05.406Z,11.30
2019-03-06T22:16:35.559Z,11.30
2019-03-06T22:19:05.660Z,11.30
2019-03-06T22:21:58.078Z,11.20
2019-03-06T22:24:28.168Z,11.20
2019-03-06T22:27:01.361Z,11.20
2019-03-06T22:29:45.757Z,11.20
2019-03-06T22:33:41.441Z,11.20
2019-03-06T22:36:55.830Z,11.20
2019-03-06T22:39:31.718Z,11.00
2019-03-06T22:42:33.709Z,10.80
2019-03-06T22:45:04.138Z,10.80
2019-03-06T22:47:34.110Z,10.70
2019-03-06T22:50:05.546Z,10.60
2019-03-06T22:52:35.491Z,10.60
2019-03-06T22:55:06.474Z,10.50
2019-03-06T22:57:36.451Z,10.50
2019-03-06T23:00:48.118Z,10.50
2019-03-06T23:03:18.454Z,10.50
2019-03-06T23:05:48.448Z,10.40
2019-03-06T23:08:18.461Z,10.40
2019-03-06T23:10:48.481Z,10.40
2019-03-06T23:13:18.435Z,10.30
2019-03-06T23:15:48.311Z,10.30
2019-03-06T23:18:18.293Z,10.30
2019-03-06T23:20:48.169Z,10.40
2019-03-06T23:23:18.067Z,10.30
2019-03-06T23:25:48.065Z,10.30
2019-03-06T23:28:27.135Z,10.20
2019-03-06T23:30:57.004Z,10.20
2019-03-06T23:33:31.160Z,10.20
2019-03-06T23:36:04.609Z,10.20
2019-03-06T23:38:34.858Z,10.10
2019-03-06T23:41:14.711Z,10.00
2019-03-06T23:43:55.285Z,10.00
2019-03-06T23:46:27.003Z,9.90
2019-03-06T23:49:02.752Z,9.90
2019-03-06T23:51:35.748Z,9.80
2019-03-06T23:54:07.125Z,9.80
2019-03-06T23:56:46.733Z,9.70
2019-03-06T23:59:23.053Z,9.70
